Terminal Aerodrome Forecast
Issued by NWS Upton, NY

Home | Current Version | Previous Version | Text Only | Print | Product List | Glossary On
Versions: 1 2 3 4 5 6 7 8 9 10 11 12 13 14 15 16 17 18 19 20 21 22 23 24
000
FTUS41 KOKX 211700
TAFJFK
TAF
KJFK 211736Z 2118/2224 10009KT P6SM SCT050 SCT080
      TEMPO 2118/2119 6SM SHRA SCT035 BKN060
     FM220000 VRB03KT P6SM SCT035 SCT070
     FM220200 03007KT P6SM SCT035 SCT070
     FM220700 03010KT 6SM -SHRA BKN020
     FM221200 03016G22KT 6SM -SHRA BKN010
     FM221800 01019G25KT 6SM -SHRA BKN010=

USA.gov is the U.S. government's official web portal to all federal, state and local government web resources and services.